Time;durP1;ratioP1;P1;durP2;ratioP2;P2;SDS_P1;SDS_P2;PMS_P1;PMS_P2;Temp;Humidity;BMP_temperature;BMP_pressure;BME280_temperature;BME280_humidity;BME280_pressure;Samples;Min_cycle;Max_cycle;Signal;HPM_P1;HPM_P2
2022/05/05 00:02:09;;;;;;;0.95;0.95;;;4.70;99.90;;;;;;5019582;28;20045;-73
2022/05/05 00:04:34;;;;;;;1.55;1.55;;;4.80;99.90;;;;;;5055197;28;20052;-73
2022/05/05 00:07:02;;;;;;;1.00;1.00;;;4.80;99.90;;;;;;5035875;28;20041;-72
2022/05/05 00:09:28;;;;;;;0.90;0.90;;;4.80;99.90;;;;;;5033518;28;20112;-72
2022/05/05 00:14:40;;;;;;;0.95;0.95;;;4.80;99.90;;;;;;5034103;28;20037;-72
2022/05/05 00:17:07;;;;;;;1.08;1.08;;;4.80;99.90;;;;;;5033317;28;20047;-72
2022/05/05 00:19:37;;;;;;;0.98;0.98;;;4.90;99.90;;;;;;5032725;28;20119;-72
2022/05/05 00:22:04;;;;;;;1.00;1.00;;;4.90;99.90;;;;;;5032603;28;20136;-72
2022/05/05 00:24:30;;;;;;;0.98;0.98;;;4.90;99.90;;;;;;5020898;28;20041;-72
2022/05/05 00:26:56;;;;;;;0.90;0.90;;;4.90;99.90;;;;;;5026554;28;20075;-72
2022/05/05 00:29:23;;;;;;;0.75;0.75;;;5.00;99.90;;;;;;5024091;28;20072;-72
2022/05/05 00:31:49;;;;;;;0.90;0.90;;;5.00;99.90;;;;;;5032194;28;20148;-72
2022/05/05 00:34:15;;;;;;;1.00;1.00;;;5.10;99.90;;;;;;5010891;28;20036;-72
2022/05/05 00:36:40;;;;;;;0.90;0.90;;;5.10;99.90;;;;;;5021021;28;20056;-73
2022/05/05 00:39:07;;;;;;;0.93;0.93;;;5.10;99.90;;;;;;5034532;28;20036;-72
2022/05/05 00:41:39;;;;;;;1.00;1.00;;;5.20;99.90;;;;;;5033968;28;20436;-72
2022/05/05 00:44:06;;;;;;;1.00;1.00;;;5.20;99.90;;;;;;5028732;28;20048;-73
2022/05/05 00:46:33;;;;;;;0.93;0.93;;;5.20;99.90;;;;;;5032714;28;20040;-73
2022/05/05 00:48:59;;;;;;;1.67;1.67;;;5.30;99.90;;;;;;5017574;28;20075;-73
2022/05/05 00:51:25;;;;;;;0.90;0.90;;;5.30;99.90;;;;;;5034284;28;20048;-72
2022/05/05 00:53:52;;;;;;;0.90;0.90;;;5.30;99.90;;;;;;5034346;28;20094;-73
2022/05/05 00:56:18;;;;;;;0.80;0.80;;;5.30;99.90;;;;;;5018633;28;20443;-73
2022/05/05 00:58:45;;;;;;;0.85;0.85;;;5.40;99.90;;;;;;5037189;28;20044;-73
2022/05/05 01:01:14;;;;;;;0.80;0.80;;;5.40;99.90;;;;;;5034190;28;20044;-72
2022/05/05 01:03:40;;;;;;;0.73;0.73;;;5.40;99.90;;;;;;5038688;28;20044;-73
2022/05/05 01:06:06;;;;;;;0.63;0.63;;;5.40;99.90;;;;;;5036419;28;20489;-73
2022/05/05 01:08:36;;;;;;;0.70;0.70;;;5.50;99.90;;;;;;5034290;28;20619;-72
2022/05/05 01:11:02;;;;;;;0.93;0.93;;;5.50;99.90;;;;;;5018438;28;20440;-73
2022/05/05 01:13:29;;;;;;;0.70;0.70;;;5.60;99.90;;;;;;5032558;28;20102;-73
2022/05/05 01:15:56;;;;;;;0.90;0.90;;;5.60;99.90;;;;;;5035785;28;20063;-73
2022/05/05 01:18:22;;;;;;;0.80;0.80;;;5.60;99.90;;;;;;5034055;28;20116;-73
2022/05/05 01:20:54;;;;;;;0.80;0.80;;;5.70;99.90;;;;;;5019128;28;20040;-73
2022/05/05 01:23:21;;;;;;;0.90;0.90;;;5.70;99.90;;;;;;5034859;28;20044;-73
2022/05/05 01:28:34;;;;;;;1.42;1.42;;;5.70;99.90;;;;;;5030263;28;20475;-73
2022/05/05 01:31:01;;;;;;;0.90;0.90;;;5.80;99.90;;;;;;5034619;28;20045;-73
2022/05/05 01:33:28;;;;;;;0.93;0.93;;;5.80;99.90;;;;;;5038220;28;20064;-73
2022/05/05 01:35:58;;;;;;;0.80;0.80;;;5.90;99.90;;;;;;5013202;28;20106;-73
2022/05/05 01:38:26;;;;;;;0.90;0.90;;;6.00;99.90;;;;;;5047957;28;20086;-73
2022/05/05 01:40:52;;;;;;;0.82;0.82;;;6.00;99.90;;;;;;5017819;28;20052;-73
2022/05/05 01:43:21;;;;;;;0.75;0.75;;;6.00;99.90;;;;;;5041689;28;20102;-73
2022/05/05 01:45:47;;;;;;;0.90;0.90;;;6.10;99.90;;;;;;5045951;28;20037;-73
2022/05/05 01:48:13;;;;;;;1.08;1.08;;;6.10;99.90;;;;;;5036911;28;20044;-73
2022/05/05 01:50:39;;;;;;;1.38;1.38;;;6.10;99.90;;;;;;5014189;28;20057;-73
2022/05/05 01:53:05;;;;;;;0.73;0.73;;;6.10;99.90;;;;;;5036353;28;20579;-73
2022/05/05 01:55:32;;;;;;;0.98;0.98;;;6.20;99.90;;;;;;5042628;28;20567;-73
2022/05/05 01:57:59;;;;;;;0.88;0.88;;;6.20;99.90;;;;;;5033760;28;20044;-72
2022/05/05 02:00:25;;;;;;;0.77;0.77;;;6.20;99.90;;;;;;5014827;28;20056;-73
2022/05/05 02:02:51;;;;;;;0.70;0.70;;;6.20;99.90;;;;;;5018400;28;20419;-73
2022/05/05 02:05:17;;;;;;;0.80;0.80;;;6.20;99.90;;;;;;5029944;28;20474;-73
2022/05/05 02:07:44;;;;;;;0.90;0.90;;;6.20;99.90;;;;;;5030107;28;20063;-73
2022/05/05 02:10:15;;;;;;;0.70;0.70;;;6.20;99.90;;;;;;5015630;28;20406;-73
2022/05/05 02:12:41;;;;;;;0.60;0.60;;;6.20;99.90;;;;;;5015076;28;20461;-73
2022/05/05 02:15:08;;;;;;;0.77;0.77;;;6.20;99.90;;;;;;5037316;28;20041;-73
2022/05/05 02:17:39;;;;;;;1.23;1.23;;;6.20;99.90;;;;;;5025380;28;20041;-73
2022/05/05 02:20:06;;;;;;;0.88;0.88;;;6.20;99.90;;;;;;5025912;28;20116;-73
2022/05/05 02:22:32;;;;;;;0.60;0.60;;;6.20;99.90;;;;;;5034203;28;20072;-73
2022/05/05 02:24:58;;;;;;;1.17;1.17;;;6.20;99.90;;;;;;5035709;28;20079;-73
2022/05/05 02:27:24;;;;;;;0.50;0.50;;;6.10;99.90;;;;;;5045951;28;20064;-73
2022/05/05 02:29:53;;;;;;;0.60;0.60;;;6.10;99.90;;;;;;5017350;28;20044;-73
2022/05/05 02:32:19;;;;;;;1.02;1.02;;;6.10;99.90;;;;;;5034746;28;20123;-73
2022/05/05 02:34:46;;;;;;;0.98;0.95;;;6.10;99.90;;;;;;5041704;28;20420;-73
2022/05/05 02:39:57;;;;;;;0.60;0.60;;;6.00;99.90;;;;;;5033109;28;20045;-73
2022/05/05 02:42:23;;;;;;;0.50;0.50;;;6.00;99.90;;;;;;5043800;28;20501;-73
2022/05/05 02:44:49;;;;;;;1.83;1.73;;;5.90;99.90;;;;;;5028669;28;20036;-73
2022/05/05 02:47:14;;;;;;;0.50;0.50;;;5.90;99.90;;;;;;5035145;28;20566;-73
2022/05/05 02:49:40;;;;;;;0.85;0.85;;;5.80;99.90;;;;;;5036287;28;20053;-73
2022/05/05 02:52:08;;;;;;;0.50;0.50;;;5.80;99.90;;;;;;5033108;28;20040;-73
2022/05/05 02:54:54;;;;;;;0.40;0.40;;;5.80;99.90;;;;;;5026564;28;20048;-73
2022/05/05 02:57:23;;;;;;;0.77;0.77;;;5.70;99.90;;;;;;5025216;28;20045;-73
2022/05/05 02:59:49;;;;;;;0.60;0.60;;;5.60;99.90;;;;;;5028383;28;20044;-73
2022/05/05 03:02:15;;;;;;;0.88;0.88;;;5.60;99.90;;;;;;5013621;28;20810;-73
2022/05/05 03:04:41;;;;;;;0.50;0.50;;;5.50;99.90;;;;;;5023370;28;20079;-73
2022/05/05 03:07:07;;;;;;;0.52;0.52;;;5.50;99.90;;;;;;5038489;28;20041;-73
2022/05/05 03:09:32;;;;;;;0.50;0.50;;;5.50;99.90;;;;;;5029139;28;20464;-73
2022/05/05 03:11:58;;;;;;;0.50;0.50;;;5.40;99.90;;;;;;5012505;28;20037;-73
2022/05/05 03:14:24;;;;;;;0.40;0.40;;;5.40;99.90;;;;;;5022928;28;20076;-73
2022/05/05 03:16:50;;;;;;;0.80;0.80;;;5.30;99.90;;;;;;5023081;28;20481;-73
2022/05/05 03:19:15;;;;;;;0.60;0.60;;;5.30;99.90;;;;;;5023398;28;20037;-73
2022/05/05 03:21:41;;;;;;;0.30;0.30;;;5.30;99.90;;;;;;5033371;28;20037;-73
2022/05/05 03:24:07;;;;;;;0.60;0.60;;;5.30;99.90;;;;;;5035224;28;20364;-73
2022/05/05 03:26:32;;;;;;;1.77;0.63;;;5.20;99.90;;;;;;5039120;28;20110;-73
2022/05/05 03:28:58;;;;;;;0.40;0.40;;;5.20;99.90;;;;;;5027892;28;20450;-73
2022/05/05 03:31:23;;;;;;;0.40;0.40;;;5.20;99.90;;;;;;5044164;28;20507;-73
2022/05/05 03:33:49;;;;;;;0.40;0.40;;;5.20;99.90;;;;;;5039258;28;20068;-73
2022/05/05 03:36:15;;;;;;;0.40;0.40;;;5.20;99.90;;;;;;5028435;28;20090;-73
2022/05/05 03:38:40;;;;;;;0.40;0.40;;;5.20;99.90;;;;;;5012004;28;20073;-73
2022/05/05 03:41:06;;;;;;;0.60;0.60;;;5.20;99.90;;;;;;5031049;28;20653;-73
2022/05/05 03:43:33;;;;;;;0.50;0.50;;;5.20;99.90;;;;;;5022219;28;20040;-73
2022/05/05 03:45:58;;;;;;;0.60;0.60;;;5.20;99.90;;;;;;5018012;28;20516;-73
2022/05/05 03:48:24;;;;;;;0.73;0.73;;;5.20;99.90;;;;;;5026769;28;20041;-73
2022/05/05 03:50:49;;;;;;;0.50;0.50;;;5.20;99.90;;;;;;5033068;28;20056;-73
2022/05/05 03:53:15;;;;;;;0.40;0.40;;;5.30;99.90;;;;;;5028983;28;20063;-73
2022/05/05 03:55:40;;;;;;;1.08;1.08;;;5.30;99.90;;;;;;5037489;28;20495;-73
2022/05/05 03:58:06;;;;;;;1.05;0.95;;;5.30;99.90;;;;;;5019929;28;20040;-73
2022/05/05 04:00:32;;;;;;;0.40;0.40;;;5.40;99.90;;;;;;5034457;28;20064;-73
2022/05/05 04:05:41;;;;;;;0.60;0.60;;;5.40;99.90;;;;;;5032409;28;20045;-73
2022/05/05 04:08:07;;;;;;;0.55;0.55;;;5.50;99.90;;;;;;5029870;28;20099;-73
2022/05/05 04:10:33;;;;;;;0.38;0.38;;;5.60;99.90;;;;;;5026409;28;20099;-73
2022/05/05 04:12:58;;;;;;;0.85;0.85;;;5.60;99.90;;;;;;5027861;28;20049;-73
2022/05/05 04:15:25;;;;;;;0.60;0.60;;;5.70;99.90;;;;;;5017314;28;20262;-74
2022/05/05 04:17:51;;;;;;;0.93;0.93;;;5.70;99.90;;;;;;5043340;28;20431;-73
2022/05/05 04:20:17;;;;;;;0.40;0.40;;;5.80;99.90;;;;;;5025707;28;20041;-73
2022/05/05 04:22:43;;;;;;;0.60;0.60;;;5.80;99.90;;;;;;5025998;28;20043;-73
2022/05/05 04:25:09;;;;;;;0.73;0.73;;;5.90;99.90;;;;;;5032191;28;20052;-73
2022/05/05 04:27:38;;;;;;;0.43;0.43;;;5.90;99.90;;;;;;5029687;28;20509;-73
2022/05/05 04:30:05;;;;;;;0.55;0.55;;;6.00;99.90;;;;;;5023850;28;20629;-73
2022/05/05 04:32:30;;;;;;;0.95;0.95;;;6.00;99.90;;;;;;5030297;28;20068;-73
2022/05/05 04:34:56;;;;;;;0.85;0.85;;;6.00;99.90;;;;;;5016500;28;20052;-73
2022/05/05 04:37:22;;;;;;;0.45;0.45;;;6.10;99.90;;;;;;5010497;28;20044;-73
2022/05/05 04:39:48;;;;;;;0.80;0.80;;;6.10;99.90;;;;;;5018009;28;20048;-73
2022/05/05 04:42:15;;;;;;;0.43;0.43;;;6.20;99.90;;;;;;5018736;28;20044;-73
2022/05/05 04:44:41;;;;;;;0.65;0.65;;;6.20;99.90;;;;;;5047714;28;20127;-73
2022/05/05 04:47:07;;;;;;;0.40;0.40;;;6.30;99.90;;;;;;5048569;28;20035;-73
2022/05/05 04:49:33;;;;;;;0.70;0.70;;;6.30;99.90;;;;;;5021350;28;20048;-73
2022/05/05 04:51:59;;;;;;;0.43;0.43;;;6.40;99.90;;;;;;5031148;28;20499;-73
2022/05/05 04:54:25;;;;;;;0.63;0.63;;;6.50;99.90;;;;;;5031498;28;20040;-73
2022/05/05 04:56:50;;;;;;;0.40;0.40;;;6.50;99.90;;;;;;5043221;28;20051;-73
2022/05/05 04:59:16;;;;;;;0.35;0.35;;;6.60;99.90;;;;;;5034797;28;20047;-73
2022/05/05 05:01:41;;;;;;;0.50;0.50;;;6.60;99.90;;;;;;5024134;28;20052;-73
2022/05/05 05:04:07;;;;;;;0.40;0.40;;;6.70;99.90;;;;;;5015318;28;20033;-73
2022/05/05 05:06:34;;;;;;;0.47;0.47;;;6.80;99.90;;;;;;5030608;28;20041;-73
2022/05/05 05:08:59;;;;;;;0.60;0.60;;;6.80;99.90;;;;;;5030774;28;20139;-73
2022/05/05 05:11:25;;;;;;;0.40;0.40;;;6.90;99.90;;;;;;5011314;28;21249;-73
2022/05/05 05:13:50;;;;;;;0.65;0.65;;;6.90;99.90;;;;;;5015225;28;20045;-73
2022/05/05 05:16:16;;;;;;;0.93;0.93;;;7.10;99.90;;;;;;5017722;28;20037;-73
2022/05/05 05:18:42;;;;;;;0.63;0.63;;;7.10;99.90;;;;;;5030687;28;20059;-73
2022/05/05 05:21:08;;;;;;;0.70;0.70;;;7.20;99.90;;;;;;5020377;28;20040;-73
2022/05/05 05:23:33;;;;;;;0.60;0.60;;;7.30;99.90;;;;;;5030821;28;20033;-73
2022/05/05 05:25:59;;;;;;;0.68;0.68;;;7.40;99.90;;;;;;5054321;28;20040;-73
2022/05/05 05:28:25;;;;;;;0.40;0.40;;;7.50;99.90;;;;;;5035155;28;20037;-73
2022/05/05 05:30:51;;;;;;;0.45;0.45;;;7.60;99.90;;;;;;5014747;28;20041;-73
2022/05/05 05:33:17;;;;;;;1.05;0.95;;;7.60;99.90;;;;;;5027710;28;20110;-73
2022/05/05 05:35:46;;;;;;;1.40;1.30;;;7.70;99.90;;;;;;5044246;28;20505;-73
2022/05/05 05:38:13;;;;;;;6.45;1.40;;;7.80;99.90;;;;;;5033690;28;20045;-73
2022/05/05 05:40:40;;;;;;;0.68;0.68;;;7.90;99.90;;;;;;5013721;28;20041;-73
2022/05/05 05:43:06;;;;;;;1.00;0.98;;;8.00;99.90;;;;;;5031822;28;20041;-73
2022/05/05 05:45:31;;;;;;;1.45;1.15;;;8.10;99.90;;;;;;5008741;28;20098;-73
2022/05/05 05:47:57;;;;;;;2.47;1.25;;;8.10;99.90;;;;;;5021232;28;20051;-73
2022/05/05 05:50:23;;;;;;;2.67;1.30;;;8.20;99.90;;;;;;5034693;28;20058;-73
2022/05/05 05:52:48;;;;;;;0.85;0.85;;;8.30;99.90;;;;;;5033192;28;20218;-73
2022/05/05 05:55:15;;;;;;;0.93;0.90;;;8.50;99.90;;;;;;5010334;28;20049;-73
2022/05/05 05:57:41;;;;;;;15.82;3.38;;;8.60;99.90;;;;;;4994396;28;20049;-73
2022/05/05 06:00:07;;;;;;;4.10;1.65;;;8.70;99.90;;;;;;5011006;28;20052;-73
2022/05/05 06:05:18;;;;;;;3.20;1.52;;;8.80;99.90;;;;;;5029770;28;20045;-73
2022/05/05 06:07:44;;;;;;;10.48;1.33;;;8.90;99.90;;;;;;5007116;28;20053;-73
2022/05/05 06:10:09;;;;;;;1.85;1.38;;;9.00;99.90;;;;;;5002086;28;20050;-73
2022/05/05 06:12:35;;;;;;;0.45;0.45;;;9.00;99.90;;;;;;5010469;28;20041;-73
2022/05/05 06:15:01;;;;;;;0.30;0.30;;;9.10;99.90;;;;;;5012879;28;21086;-73
2022/05/05 06:17:26;;;;;;;0.70;0.70;;;9.20;99.90;;;;;;5009983;28;20044;-73
2022/05/05 06:19:52;;;;;;;1.75;1.00;;;9.30;99.90;;;;;;4993872;28;20411;-73
2022/05/05 06:22:17;;;;;;;0.90;0.90;;;9.40;99.90;;;;;;5008416;28;20037;-73
2022/05/05 06:24:43;;;;;;;0.40;0.40;;;9.50;99.90;;;;;;5009635;28;20428;-73
2022/05/05 06:27:08;;;;;;;1.85;1.75;;;9.70;99.90;;;;;;4996591;28;20064;-73
2022/05/05 06:29:34;;;;;;;0.20;0.20;;;9.70;99.90;;;;;;4994968;28;20076;-73
2022/05/05 06:32:00;;;;;;;0.30;0.30;;;9.80;99.90;;;;;;5010595;28;20121;-73
2022/05/05 06:34:25;;;;;;;0.30;0.30;;;9.90;99.90;;;;;;5003311;28;20045;-73
2022/05/05 06:36:51;;;;;;;0.30;0.30;;;10.00;99.90;;;;;;5016535;28;20041;-73
2022/05/05 06:39:16;;;;;;;0.30;0.30;;;10.20;99.90;;;;;;5008031;28;20421;-73
2022/05/05 06:41:42;;;;;;;168.05;150.35;;;10.30;99.90;;;;;;4989950;28;20041;-73
2022/05/05 06:44:08;;;;;;;0.30;0.30;;;10.40;99.90;;;;;;5009749;28;20579;-73
2022/05/05 06:46:33;;;;;;;84.82;79.03;;;10.60;99.90;;;;;;4997027;28;20431;-73
2022/05/05 06:48:59;;;;;;;102.18;80.13;;;10.60;99.90;;;;;;5009068;28;20404;-73
2022/05/05 06:51:25;;;;;;;1999.90;999.90;;;10.80;99.90;;;;;;5023762;28;20067;-73
2022/05/05 06:53:50;;;;;;;22.92;21.73;;;10.90;99.90;;;;;;5013067;28;20469;-73
2022/05/05 06:56:16;;;;;;;1999.90;999.90;;;11.00;99.90;;;;;;5027063;28;20043;-73
2022/05/05 06:58:42;;;;;;;1999.90;999.90;;;11.10;99.90;;;;;;5012437;28;20037;-73
2022/05/05 07:05:23;;;;;;;0.10;0.10;;;11.30;99.90;;;;;;5028891;28;20467;-73
2022/05/05 07:06:37;;;;;;;0.05;0.05;;;11.40;99.90;;;;;;5029406;28;20172;-74
2022/05/05 07:11:46;;;;;;;0.10;0.10;;;11.70;99.90;;;;;;5044245;28;20048;-73
2022/05/05 07:14:12;;;;;;;0.47;0.38;;;11.80;99.90;;;;;;5008547;28;20051;-73
2022/05/05 07:16:38;;;;;;;0.00;0.00;;;11.90;99.90;;;;;;5027064;28;20711;-73
2022/05/05 07:19:04;;;;;;;0.10;0.10;;;12.00;99.90;;;;;;5003517;28;20354;-73
2022/05/05 07:21:30;;;;;;;0.00;0.00;;;12.00;99.90;;;;;;5016644;28;20124;-73
2022/05/05 07:23:56;;;;;;;0.10;0.10;;;12.10;99.90;;;;;;5033546;28;20508;-73
2022/05/05 07:26:22;;;;;;;0.20;0.20;;;12.10;99.90;;;;;;5019757;28;20650;-73
2022/05/05 07:28:47;;;;;;;0.10;0.10;;;12.30;99.90;;;;;;5031985;28;20064;-73
2022/05/05 07:31:13;;;;;;;0.10;0.10;;;12.30;99.90;;;;;;5025537;28;20049;-74
2022/05/05 07:33:39;;;;;;;0.10;0.10;;;12.40;99.90;;;;;;5027455;28;20669;-73
2022/05/05 07:36:05;;;;;;;0.57;0.57;;;12.60;99.90;;;;;;5028027;28;20497;-73
2022/05/05 07:38:31;;;;;;;0.10;0.10;;;12.70;99.90;;;;;;5015274;28;20169;-73
2022/05/05 07:40:57;;;;;;;0.20;0.20;;;12.80;99.90;;;;;;5009711;28;20045;-74
2022/05/05 07:43:23;;;;;;;0.30;0.30;;;12.90;99.90;;;;;;5013297;28;20037;-73
2022/05/05 07:45:49;;;;;;;1.52;1.15;;;13.00;99.90;;;;;;5020077;28;20127;-74
2022/05/05 07:48:15;;;;;;;0.30;0.30;;;13.20;99.90;;;;;;5027850;28;20544;-74
2022/05/05 07:50:41;;;;;;;0.32;0.32;;;13.30;99.90;;;;;;5017843;28;20140;-74
2022/05/05 07:53:06;;;;;;;0.03;0.03;;;13.50;99.90;;;;;;5039179;28;20136;-74
2022/05/05 07:55:32;;;;;;;2.92;1.85;;;13.70;99.90;;;;;;5008851;28;20072;-74
2022/05/05 07:57:58;;;;;;;4.45;3.30;;;13.80;99.90;;;;;;5032760;28;20044;-74
2022/05/05 08:00:23;;;;;;;1.00;0.73;;;13.90;99.90;;;;;;5049939;28;20040;-73
2022/05/05 08:02:49;;;;;;;0.17;0.17;;;14.00;99.90;;;;;;5015721;28;20040;-74
2022/05/05 08:05:15;;;;;;;0.10;0.10;;;14.00;99.90;;;;;;5016532;28;20453;-74
2022/05/05 08:07:45;;;;;;;0.73;0.73;;;14.10;99.90;;;;;;5017378;28;20397;-73
2022/05/05 08:10:11;;;;;;;0.55;0.52;;;14.30;99.90;;;;;;5033358;28;20649;-74
2022/05/05 08:12:37;;;;;;;0.10;0.10;;;14.50;99.90;;;;;;5032630;28;20071;-73
2022/05/05 08:15:04;;;;;;;0.10;0.10;;;14.70;99.90;;;;;;5042265;28;20408;-74
2022/05/05 08:17:33;;;;;;;0.25;0.20;;;14.80;99.90;;;;;;5040159;28;20056;-74
2022/05/05 08:19:59;;;;;;;0.30;0.25;;;14.80;99.90;;;;;;5029734;28;20056;-74
2022/05/05 08:22:24;;;;;;;0.17;0.17;;;14.90;99.90;;;;;;5014540;28;20040;-74
2022/05/05 08:30:18;;;;;;;0.30;0.30;;;15.10;99.10;;;;;;5040161;28;20037;-73
2022/05/05 08:32:44;;;;;;;0.50;0.50;;;15.30;99.40;;;;;;5044749;28;20037;-74
2022/05/05 08:35:10;;;;;;;1.30;1.20;;;15.50;98.80;;;;;;5012586;28;20815;-73
2022/05/05 08:37:36;;;;;;;0.75;0.68;;;15.60;99.90;;;;;;5051405;28;20400;-74
2022/05/05 08:40:02;;;;;;;0.80;0.80;;;15.80;99.70;;;;;;5012152;28;20497;-74
2022/05/05 08:42:28;;;;;;;3.85;2.17;;;16.20;99.90;;;;;;5019265;28;20037;-74
2022/05/05 08:44:53;;;;;;;1.13;0.93;;;16.50;98.80;;;;;;5019531;28;20072;-74
2022/05/05 08:47:23;;;;;;;1.80;1.08;;;16.70;99.80;;;;;;5019708;28;22050;-73
2022/05/05 08:49:49;;;;;;;2.78;1.38;;;16.80;99.70;;;;;;5019741;28;20531;-74
2022/05/05 08:52:21;;;;;;;2.33;1.40;;;16.90;98.00;;;;;;5016165;28;20052;-74
2022/05/05 08:54:48;;;;;;;1.73;1.63;;;17.20;98.00;;;;;;5016746;28;20582;-73
2022/05/05 08:57:14;;;;;;;3.92;2.08;;;17.20;94.60;;;;;;5018018;28;20087;-74
2022/05/05 08:59:40;;;;;;;2.47;1.40;;;17.10;93.00;;;;;;5035357;28;20044;-74
2022/05/05 09:02:05;;;;;;;2.63;1.90;;;17.20;94.90;;;;;;5019779;28;20044;-74
2022/05/05 09:04:31;;;;;;;1.02;0.63;;;17.40;94.40;;;;;;5017710;28;20041;-74
2022/05/05 09:06:57;;;;;;;2.80;1.40;;;17.70;93.90;;;;;;5017096;28;20055;-74
2022/05/05 09:09:25;;;;;;;2.20;1.23;;;18.00;91.90;;;;;;5018345;28;20040;-74
2022/05/05 09:12:17;;;;;;;1.33;1.20;;;18.30;91.80;;;;;;5016732;28;20055;-74
2022/05/05 09:14:47;;;;;;;0.80;0.80;;;18.60;90.50;;;;;;5018086;28;20518;-74
2022/05/05 09:17:23;;;;;;;1.17;1.08;;;18.80;92.40;;;;;;5017759;28;20512;-74
2022/05/05 09:19:50;;;;;;;2.78;1.48;;;19.00;92.70;;;;;;5030455;28;20464;-74
2022/05/05 09:22:18;;;;;;;1.67;1.58;;;19.20;90.90;;;;;;5028533;28;20052;-74
2022/05/05 09:24:50;;;;;;;4.25;1.92;;;19.60;91.50;;;;;;5030770;28;20060;-74
2022/05/05 09:27:19;;;;;;;8.35;1.98;;;19.60;89.20;;;;;;5029575;28;20093;-74
2022/05/05 09:30:03;;;;;;;0.20;0.20;;;19.50;88.40;;;;;;5043954;28;20150;-75
2022/05/05 09:32:29;;;;;;;0.30;0.30;;;19.40;87.70;;;;;;5026876;28;20040;-74
2022/05/05 09:35:00;;;;;;;0.10;0.10;;;19.50;88.30;;;;;;5031608;28;20048;-74
2022/05/05 09:37:26;;;;;;;2.55;1.35;;;19.90;88.20;;;;;;5017739;28;20508;-75
2022/05/05 09:39:58;;;;;;;3.28;0.90;;;20.10;88.50;;;;;;5025930;28;20036;-74
2022/05/05 09:42:40;;;;;;;1.33;1.15;;;20.00;84.70;;;;;;5033880;28;20041;-74
2022/05/05 09:45:36;;;;;;;1.42;1.08;;;20.00;87.90;;;;;;5032332;28;20123;-74
2022/05/05 09:48:04;;;;;;;0.95;0.70;;;20.00;84.30;;;;;;4996404;28;20044;-74
2022/05/05 09:50:31;;;;;;;4.00;2.38;;;20.20;84.60;;;;;;5029825;28;20132;-74
2022/05/05 09:58:39;;;;;;;4.68;2.65;;;20.40;79.80;;;;;;5045839;28;20052;-73
2022/05/05 10:04:00;;;;;;;2.28;1.63;;;19.90;77.60;;;;;;5030838;28;20056;-73
2022/05/05 10:06:40;;;;;;;10.75;2.40;;;19.70;75.60;;;;;;5014720;28;20045;-74
2022/05/05 10:09:16;;;;;;;1.00;1.00;;;19.70;76.20;;;;;;5018727;28;20115;-73
2022/05/05 10:11:42;;;;;;;5.68;3.70;;;19.90;79.90;;;;;;5038511;28;20476;-74
2022/05/05 10:14:13;;;;;;;286.40;49.08;;;20.10;79.30;;;;;;5000416;28;20068;-74
2022/05/05 10:16:41;;;;;;;8.32;3.40;;;20.00;76.90;;;;;;5022273;28;20082;-74
2022/05/05 10:19:07;;;;;;;0.10;0.10;;;19.70;76.00;;;;;;5028872;28;20558;-74
2022/05/05 10:21:59;;;;;;;4.30;1.45;;;19.60;76.10;;;;;;5036719;28;20413;-74
2022/05/05 10:24:38;;;;;;;5.95;3.05;;;19.60;78.00;;;;;;5028688;28;20055;-74
2022/05/05 10:27:04;;;;;;;2.85;2.00;;;19.60;78.50;;;;;;5012890;28;20044;-74
2022/05/05 10:29:41;;;;;;;4.47;2.65;;;19.60;79.00;;;;;;5015376;28;20086;-73
2022/05/05 10:32:09;;;;;;;3.70;2.35;;;19.60;77.40;;;;;;5013038;28;20036;-74
2022/05/05 10:34:39;;;;;;;4.88;3.45;;;19.60;78.70;;;;;;5000963;28;20049;-73
2022/05/05 10:37:10;;;;;;;2.15;1.95;;;19.50;77.80;;;;;;5008014;28;20107;-73
2022/05/05 10:39:49;;;;;;;24.10;1.38;;;19.40;78.40;;;;;;5029772;28;20481;-74
2022/05/05 10:42:33;;;;;;;1.13;1.02;;;19.50;77.70;;;;;;5028787;28;20052;-74
2022/05/05 10:45:30;;;;;;;2.42;2.10;;;19.60;76.20;;;;;;5031530;28;20044;-74
2022/05/05 10:47:57;;;;;;;6.90;2.60;;;19.80;78.50;;;;;;5028254;28;20045;-74
2022/05/05 10:50:56;;;;;;;0.77;0.77;;;19.90;77.60;;;;;;5031355;28;20401;-73
2022/05/05 10:53:30;;;;;;;6.65;2.75;;;20.10;76.80;;;;;;5016658;28;20044;-74
2022/05/05 10:55:57;;;;;;;0.85;0.75;;;20.20;78.10;;;;;;5026523;28;20044;-74
2022/05/05 10:58:57;;;;;;;1.23;0.93;;;20.40;74.40;;;;;;5019737;28;20076;-73
2022/05/05 11:01:25;;;;;;;2.75;1.15;;;20.40;75.80;;;;;;5013161;28;20090;-73
2022/05/05 11:04:15;;;;;;;20.65;19.17;;;20.40;75.40;;;;;;5018275;28;20566;-74
2022/05/05 11:06:45;;;;;;;0.68;0.50;;;20.20;72.10;;;;;;5029618;28;20056;-74
2022/05/05 11:09:31;;;;;;;8.23;2.72;;;20.10;74.80;;;;;;5031194;28;20509;-74
2022/05/05 11:12:19;;;;;;;4.95;2.30;;;20.10;74.60;;;;;;5009741;28;20044;-74
2022/05/05 11:23:50;;;;;;;5.95;3.13;;;20.20;76.00;;;;;;5026511;28;20045;-73
2022/05/05 11:26:17;;;;;;;3.58;2.55;;;20.40;74.00;;;;;;5012885;28;20050;-73
2022/05/05 11:28:43;;;;;;;1.02;0.95;;;20.40;73.10;;;;;;5008932;28;20068;-74
2022/05/05 11:31:19;;;;;;;170.38;9.60;;;20.50;72.00;;;;;;5022874;28;20489;-74
2022/05/05 11:34:03;;;;;;;1.63;1.35;;;20.60;71.50;;;;;;4998586;28;20052;-73
2022/05/05 11:36:31;;;;;;;146.18;10.68;;;20.70;72.50;;;;;;5014931;28;20048;-73
2022/05/05 11:38:57;;;;;;;1.92;1.55;;;20.90;71.30;;;;;;5009677;28;20045;-73
2022/05/05 11:41:23;;;;;;;1.83;1.35;;;21.00;70.50;;;;;;5011557;28;20072;-73
2022/05/05 11:46:36;;;;;;;146.25;18.65;;;21.40;71.40;;;;;;5029438;28;20399;-73
2022/05/05 11:49:02;;;;;;;3.30;2.03;;;21.60;70.20;;;;;;5025472;28;20041;-73
2022/05/05 11:51:33;;;;;;;0.70;0.70;;;21.80;70.30;;;;;;5021245;28;20056;-73
2022/05/05 11:54:10;;;;;;;108.28;15.70;;;21.80;70.00;;;;;;5016426;28;20582;-73
2022/05/05 11:56:42;;;;;;;171.57;41.00;;;21.70;69.90;;;;;;5019608;28;20045;-73
2022/05/05 12:02:02;;;;;;;1.98;0.98;;;21.90;68.70;;;;;;5024684;28;20041;-73
2022/05/05 12:04:28;;;;;;;1.05;0.77;;;22.10;68.50;;;;;;5007612;28;20041;-74
2022/05/05 12:06:54;;;;;;;3.15;1.60;;;22.00;64.30;;;;;;5023712;28;20044;-73
2022/05/05 12:09:21;;;;;;;4.38;2.67;;;21.80;66.30;;;;;;5020012;28;20099;-73
2022/05/05 12:11:46;;;;;;;3.30;2.03;;;21.70;66.00;;;;;;5032886;28;20059;-73
2022/05/05 12:14:13;;;;;;;586.72;64.38;;;21.60;65.80;;;;;;5016453;28;20036;-74
2022/05/05 12:16:39;;;;;;;4.15;2.65;;;21.50;65.50;;;;;;5028154;28;20052;-73
2022/05/05 12:19:14;;;;;;;5.43;2.65;;;21.40;66.50;;;;;;5011975;28;20040;-73
2022/05/05 12:21:57;;;;;;;2.47;1.75;;;21.20;64.70;;;;;;5034046;28;20048;-74
2022/05/05 12:24:24;;;;;;;2.00;1.67;;;21.00;65.30;;;;;;5029624;28;20040;-73
2022/05/05 12:27:05;;;;;;;2.85;1.48;;;21.00;65.60;;;;;;5013373;28;20256;-73
2022/05/05 12:29:57;;;;;;;5.93;2.53;;;21.10;66.70;;;;;;5025322;28;20088;-73
2022/05/05 12:32:22;;;;;;;1.73;1.20;;;21.40;67.60;;;;;;4998024;28;20059;-73
2022/05/05 12:34:48;;;;;;;48.40;5.03;;;21.50;66.60;;;;;;5012686;28;20493;-73
2022/05/05 12:37:15;;;;;;;6.15;1.27;;;21.60;67.00;;;;;;5031947;28;20470;-73
2022/05/05 12:39:57;;;;;;;9.30;3.25;;;21.80;65.60;;;;;;5043326;28;20090;-73
2022/05/05 12:42:25;;;;;;;7.22;1.88;;;22.00;65.70;;;;;;5011592;28;20052;-73
2022/05/05 12:44:51;;;;;;;1.48;1.30;;;22.10;65.90;;;;;;5028502;28;20127;-73
2022/05/05 12:47:23;;;;;;;3.15;2.08;;;22.10;65.30;;;;;;5029339;28;20448;-73
2022/05/05 12:49:48;;;;;;;5.35;3.90;;;22.00;64.00;;;;;;5015822;28;20063;-73
2022/05/05 13:00:27;;;;;;;1.00;0.73;;;22.10;65.50;;;;;;5031156;28;20064;-73
2022/05/05 13:02:53;;;;;;;0.38;0.38;;;22.10;64.30;;;;;;4997993;28;20057;-73
2022/05/05 13:05:19;;;;;;;0.65;0.65;;;22.10;65.00;;;;;;5016279;28;20053;-73
2022/05/05 13:07:44;;;;;;;8.77;3.90;;;22.30;64.50;;;;;;5014755;28;20479;-73
2022/05/05 13:10:10;;;;;;;7.20;2.53;;;22.50;65.40;;;;;;5032140;28;20081;-74
2022/05/05 13:12:36;;;;;;;1.23;1.13;;;22.40;63.50;;;;;;5032747;28;20385;-73
2022/05/05 13:15:01;;;;;;;0.52;0.40;;;22.00;62.10;;;;;;5024749;28;20076;-73
2022/05/05 13:17:29;;;;;;;0.85;0.75;;;21.80;63.30;;;;;;5000852;28;20044;-73
2022/05/05 13:19:54;;;;;;;1.98;1.63;;;21.60;63.40;;;;;;5032304;28;20068;-73
2022/05/05 13:22:21;;;;;;;2.70;1.95;;;21.60;64.30;;;;;;5032767;28;20560;-73
2022/05/05 13:24:46;;;;;;;3.67;2.33;;;21.90;63.70;;;;;;5021753;28;20075;-73
2022/05/05 13:27:12;;;;;;;119.35;33.97;;;22.00;62.90;;;;;;5012686;28;20489;-74
2022/05/05 13:29:37;;;;;;;3.35;2.28;;;21.90;62.90;;;;;;5014073;28;20045;-74
2022/05/05 13:32:03;;;;;;;13.55;3.08;;;21.90;64.10;;;;;;5015660;28;20064;-73
2022/05/05 13:34:29;;;;;;;1.15;0.95;;;21.90;63.60;;;;;;5048566;28;20036;-73
2022/05/05 13:36:55;;;;;;;2.83;2.30;;;21.80;63.20;;;;;;5015850;28;20516;-73
2022/05/05 13:39:20;;;;;;;3.38;1.90;;;21.90;63.30;;;;;;5047063;28;20041;-73
2022/05/05 13:41:46;;;;;;;31.50;3.22;;;21.90;64.40;;;;;;5032241;28;20033;-73
2022/05/05 13:44:12;;;;;;;10.43;3.33;;;21.90;64.00;;;;;;5012475;28;20121;-73
2022/05/05 13:46:38;;;;;;;1.80;1.65;;;21.80;63.10;;;;;;4996174;28;20489;-73
2022/05/05 13:49:05;;;;;;;1.23;1.10;;;21.70;62.30;;;;;;5013236;28;20037;-73
2022/05/05 13:51:31;;;;;;;3.88;2.25;;;21.60;63.90;;;;;;5044079;28;20073;-73